Time;durP1;ratioP1;P1;durP2;ratioP2;P2;SDS_P1;SDS_P2;PMS_P1;PMS_P2;Temp;Humidity;BMP_temperature;BMP_pressure;BME280_temperature;BME280_humidity;BME280_pressure;Samples;Min_cycle;Max_cycle;Signal;HPM_P1;HPM_P2
2021/10/24 07:02:52;;;;;;;1.60;1.50;;;;;;;1.37;95.85;99780.84;4860142;29;20455;-69
2021/10/24 07:05:19;;;;;;;1.77;1.67;;;;;;;1.83;96.18;99776.44;4861673;29;20041;-69
2021/10/24 07:07:45;;;;;;;1.80;1.70;;;;;;;1.50;93.34;99782.16;4861460;29;20479;-69
2021/10/24 07:10:11;;;;;;;3.13;1.27;;;;;;;1.34;94.15;99784.97;4860938;29;20037;-69
2021/10/24 07:12:37;;;;;;;0.70;0.70;;;;;;;1.34;95.02;99774.78;4850183;29;20026;-69
2021/10/24 07:15:06;;;;;;;1.00;1.00;;;;;;;1.44;95.28;99776.81;4860367;29;20486;-69
2021/10/24 07:17:31;;;;;;;1.20;1.20;;;;;;;1.60;94.90;99774.00;4861360;29;20041;-69
2021/10/24 07:19:56;;;;;;;1.25;1.25;;;;;;;1.74;94.42;99775.31;4861241;29;20022;-69
2021/10/24 07:22:22;;;;;;;8.70;1.48;;;;;;;1.91;94.61;99775.00;4861161;29;20029;-69
2021/10/24 07:24:47;;;;;;;1.10;1.10;;;;;;;2.14;93.26;99779.16;4861129;29;20487;-68
2021/10/24 07:27:13;;;;;;;4.15;1.70;;;;;;;2.44;92.75;99778.38;4861057;29;20041;-69
2021/10/24 07:29:38;;;;;;;1.90;1.75;;;;;;;2.39;90.98;99779.94;4861258;29;20270;-69
2021/10/24 07:32:04;;;;;;;1.17;1.17;;;;;;;2.35;90.58;99775.53;4860389;29;20084;-68
2021/10/24 07:34:29;;;;;;;1.75;1.65;;;;;;;2.41;90.21;99784.25;4860977;29;20383;-69
2021/10/24 07:36:54;;;;;;;1.20;1.20;;;;;;;2.49;89.85;99776.84;4861027;29;20029;-69
2021/10/24 07:39:20;;;;;;;1.73;1.63;;;;;;;2.53;89.73;99781.22;4860901;29;20063;-69
2021/10/24 07:41:46;;;;;;;1.85;1.25;;;;;;;3.10;89.42;99783.75;4859511;29;20527;-69
2021/10/24 07:44:13;;;;;;;2.78;2.22;;;;;;;3.58;89.17;99788.47;4853071;29;20497;-69
2021/10/24 07:46:39;;;;;;;1.13;1.13;;;;;;;3.99;84.55;99778.38;4859719;29;20543;-69
2021/10/24 07:49:05;;;;;;;1.80;1.40;;;;;;;4.97;79.95;99773.75;4860767;29;20021;-69
2021/10/24 07:51:30;;;;;;;1.65;1.55;;;;;;;6.60;74.41;99768.00;4860470;29;20057;-69
2021/10/24 07:53:55;;;;;;;1.92;1.50;;;;;;;9.17;63.19;99748.75;4860749;29;20045;-69
2021/10/24 07:56:22;;;;;;;3.28;1.88;;;;;;;11.46;54.53;99748.50;4860469;29;20368;-69
2021/10/24 07:58:47;;;;;;;0.93;0.93;;;;;;;13.49;48.05;99740.44;4860561;29;20049;-69
2021/10/24 08:01:14;;;;;;;2.45;1.55;;;;;;;14.39;45.54;99746.78;4860067;29;20574;-69
2021/10/24 08:03:40;;;;;;;1.20;1.10;;;;;;;15.42;42.82;99744.75;4860630;29;20040;-69
2021/10/24 08:06:06;;;;;;;8.57;1.63;;;;;;;15.53;41.92;99748.00;4860500;29;20363;-69
2021/10/24 08:08:34;;;;;;;1.10;1.00;;;;;;;18.30;37.51;99744.66;4860721;29;20037;-69
2021/10/24 08:10:59;;;;;;;0.70;0.70;;;;;;;20.12;33.38;99732.56;4859106;29;20033;-69
2021/10/24 08:13:24;;;;;;;2.55;1.35;;;;;;;20.81;31.37;99732.25;4852699;29;20026;-69
2021/10/24 08:15:51;;;;;;;1.30;1.10;;;;;;;18.95;35.48;99752.88;4860408;29;20518;-69
2021/10/24 08:18:16;;;;;;;0.98;0.85;;;;;;;17.63;35.09;99751.16;4860380;29;20056;-69
2021/10/24 08:20:44;;;;;;;1.35;1.25;;;;;;;17.79;35.95;99741.06;4860138;29;20040;-69
2021/10/24 08:23:10;;;;;;;1.02;0.90;;;;;;;21.45;30.75;99729.31;4860058;29;20034;-70
2021/10/24 08:25:35;;;;;;;1.50;1.10;;;;;;;22.55;29.79;99727.38;4860079;29;20032;-69
2021/10/24 08:28:02;;;;;;;2.65;1.55;;;;;;;23.99;27.58;99726.63;4860128;29;20038;-69
2021/10/24 08:30:28;;;;;;;1.10;1.00;;;;;;;23.09;26.82;99735.13;4860010;29;20446;-70
2021/10/24 08:32:54;;;;;;;1.02;0.82;;;;;;;22.52;28.12;99735.44;4859913;29;20064;-69
2021/10/24 08:35:19;;;;;;;2.78;0.95;;;;;;;24.05;27.12;99731.53;4860155;29;20094;-70
2021/10/24 08:37:45;;;;;;;3.55;1.38;;;;;;;24.17;27.21;99732.59;4859990;29;20436;-69
2021/10/24 08:40:11;;;;;;;1.92;1.80;;;;;;;24.68;26.40;99728.69;4859815;29;20459;-70
2021/10/24 08:42:39;;;;;;;0.63;0.63;;;;;;;24.56;25.74;99726.75;4852740;29;20113;-70
2021/10/24 08:45:06;;;;;;;1.10;0.98;;;;;;;20.40;30.22;99732.25;4857956;29;20021;-70
2021/10/24 08:47:32;;;;;;;3.00;1.20;;;;;;;21.69;29.83;99717.59;4859814;29;20104;-70
2021/10/24 08:49:57;;;;;;;1.20;1.10;;;;;;;20.02;32.55;99727.69;4859779;29;20472;-70
2021/10/24 08:52:25;;;;;;;0.75;0.73;;;;;;;21.90;29.96;99714.84;4859482;29;20041;-70
2021/10/24 08:54:53;;;;;;;0.85;0.85;;;;;;;19.30;33.79;99721.78;4859633;29;20038;-69
2021/10/24 08:57:25;;;;;;;1.73;1.23;;;;;;;21.16;30.96;99713.06;4859696;29;20347;-69
2021/10/24 08:59:53;;;;;;;1.77;1.15;;;;;;;22.29;29.36;99715.53;4859698;29;20077;-70
2021/10/24 09:02:19;;;;;;;0.75;0.75;;;;;;;23.23;28.24;99716.72;4859378;29;20053;-73
2021/10/24 09:04:51;;;;;;;0.80;0.80;;;;;;;23.27;28.24;99720.91;4858382;29;20034;-73
2021/10/24 09:07:18;;;;;;;1.92;0.82;;;;;;;22.40;29.39;99716.75;4859634;29;20063;-73
2021/10/24 09:09:43;;;;;;;1.58;1.48;;;;;;;23.36;29.32;99718.72;4859653;29;20033;-73
2021/10/24 09:12:11;;;;;;;1.73;1.42;;;;;;;24.84;26.76;99721.47;4855888;29;20049;-73
2021/10/24 09:14:48;;;;;;;0.80;0.80;;;;;;;25.29;26.04;99709.00;4854630;29;20034;-73
2021/10/24 09:17:21;;;;;;;0.85;0.82;;;;;;;23.74;27.05;99709.50;4859637;29;20030;-73
2021/10/24 09:19:58;;;;;;;0.98;0.90;;;;;;;21.64;31.38;99709.06;4859382;29;20036;-73
2021/10/24 09:22:30;;;;;;;1.35;0.90;;;;;;;24.65;27.46;99710.31;4859287;29;20045;-73
2021/10/24 09:25:05;;;;;;;1.27;1.17;;;;;;;23.46;28.27;99707.53;4859397;29;20026;-73
2021/10/24 09:27:32;;;;;;;1.45;1.08;;;;;;;23.99;28.09;99700.13;4859506;29;20034;-73
2021/10/24 09:30:10;;;;;;;4.13;1.17;;;;;;;24.02;28.70;99698.13;4859235;29;20030;-73
2021/10/24 09:32:55;;;;;;;1.20;1.10;;;;;;;21.79;30.49;99703.03;4859484;29;20037;-73
2021/10/24 09:35:27;;;;;;;1.15;0.88;;;;;;;22.93;29.65;99699.91;4859428;29;20165;-73
2021/10/24 09:37:52;;;;;;;1.60;1.00;;;;;;;24.91;27.23;99691.97;4859396;29;20056;-73
2021/10/24 09:40:24;;;;;;;1.17;0.93;;;;;;;22.32;30.60;99696.00;4859241;29;20049;-73
2021/10/24 09:43:13;;;;;;;3.22;2.00;;;;;;;24.14;27.96;99683.34;4864697;29;20461;-73
2021/10/24 09:45:40;;;;;;;0.55;0.55;;;;;;;21.72;30.71;99688.44;4818934;29;20050;-73
2021/10/24 09:48:11;;;;;;;1.45;0.70;;;;;;;21.47;32.16;99685.28;4822729;29;20042;-73
2021/10/24 09:50:51;;;;;;;1.10;1.00;;;;;;;21.05;31.93;99688.97;4822543;29;20023;-73
2021/10/24 09:53:19;;;;;;;0.65;0.65;;;;;;;21.23;31.13;99687.28;4822615;29;20030;-73
2021/10/24 09:55:52;;;;;;;0.52;0.52;;;;;;;22.89;29.66;99679.84;4823848;29;20030;-73
2021/10/24 09:58:18;;;;;;;0.90;0.90;;;;;;;22.18;29.41;99678.22;4825935;29;20030;-73
2021/10/24 10:00:44;;;;;;;0.60;0.50;;;;;;;22.39;28.79;99672.81;4825429;29;20606;-73
2021/10/24 10:03:10;;;;;;;0.80;0.80;;;;;;;21.97;29.25;99679.31;4824482;29;20512;-73
2021/10/24 10:05:39;;;;;;;1.60;1.02;;;;;;;22.55;29.12;99673.69;4825581;29;20046;-73
2021/10/24 10:08:09;;;;;;;0.90;0.70;;;;;;;22.28;29.16;99666.25;4825708;29;20081;-73
2021/10/24 10:10:42;;;;;;;0.85;0.85;;;;;;;21.51;29.97;99665.72;4825631;29;20105;-73
2021/10/24 10:13:12;;;;;;;1.30;0.40;;;;;;;19.72;32.48;99682.44;4852880;29;20065;-73
2021/10/24 10:15:41;;;;;;;1.48;0.63;;;;;;;21.35;29.62;99657.72;4862319;29;20495;-73
2021/10/24 10:18:07;;;;;;;0.57;0.57;;;;;;;21.97;29.98;99660.81;4862236;29;20037;-73
2021/10/24 10:20:35;;;;;;;0.95;0.82;;;;;;;22.61;28.83;99654.88;4862170;29;20360;-73
2021/10/24 10:23:06;;;;;;;0.82;0.60;;;;;;;21.12;30.89;99653.50;4862156;29;20033;-73
2021/10/24 10:25:37;;;;;;;2.67;0.85;;;;;;;24.17;26.74;99646.06;4862351;29;20030;-73
2021/10/24 10:28:03;;;;;;;0.63;0.60;;;;;;;23.25;26.80;99648.72;4862093;29;20558;-73
2021/10/24 10:30:40;;;;;;;0.30;0.30;;;;;;;23.44;26.92;99645.88;4861935;29;20025;-73
2021/10/24 10:33:29;;;;;;;2.53;1.08;;;;;;;21.96;29.63;99651.22;4862042;29;20033;-73
2021/10/24 10:35:56;;;;;;;0.52;0.50;;;;;;;23.51;27.69;99641.13;4862052;29;20032;-73
2021/10/24 10:38:36;;;;;;;0.77;0.60;;;;;;;21.51;29.01;99649.91;4861939;29;20392;-73
2021/10/24 10:41:02;;;;;;;1.48;0.95;;;;;;;23.48;28.15;99639.50;4860803;29;20025;-73
2021/10/24 10:43:28;;;;;;;0.47;0.47;;;;;;;24.21;26.28;99637.00;4853960;29;20371;-73
2021/10/24 10:45:58;;;;;;;1.25;0.52;;;;;;;23.30;27.21;99644.03;4861865;29;20037;-73
2021/10/24 10:48:46;;;;;;;0.68;0.68;;;;;;;22.41;29.02;99640.06;4861758;29;20418;-73
2021/10/24 10:51:15;;;;;;;0.50;0.50;;;;;;;22.19;28.77;99640.38;4861337;29;20034;-73
2021/10/24 10:53:46;;;;;;;2.22;0.73;;;;;;;23.14;27.61;99624.69;4875960;29;20041;-73
2021/10/24 10:56:12;;;;;;;0.70;0.70;;;;;;;22.66;28.17;99623.75;4859199;29;20056;-73
2021/10/24 10:58:45;;;;;;;0.80;0.60;;;;;;;22.05;29.21;99629.63;4856797;29;20511;-73
2021/10/24 11:01:29;;;;;;;0.73;0.73;;;;;;;22.10;29.47;99619.69;4850996;29;20617;-73
2021/10/24 11:04:18;;;;;;;1.00;0.50;;;;;;;22.80;27.69;99615.94;4842881;29;20025;-73
2021/10/24 11:06:57;;;;;;;0.88;0.40;;;;;;;21.57;29.88;99622.41;4841741;29;20037;-73
2021/10/24 11:09:42;;;;;;;0.73;0.50;;;;;;;21.04;31.29;99619.63;4841349;29;20038;-73
2021/10/24 11:12:09;;;;;;;0.45;0.45;;;;;;;22.42;29.74;99617.16;4848356;29;20428;-73
2021/10/24 11:15:03;;;;;;;0.45;0.30;;;;;;;23.50;27.70;99602.38;4854627;29;20037;-73
2021/10/24 11:17:33;;;;;;;3.03;0.50;;;;;;;21.58;30.48;99609.13;4859832;29;20040;-73
2021/10/24 11:20:12;;;;;;;1.38;0.90;;;;;;;21.74;29.93;99609.22;4859458;29;20025;-73
2021/10/24 11:22:44;;;;;;;0.47;0.47;;;;;;;23.74;27.43;99595.69;4859974;29;20037;-73
2021/10/24 11:25:09;;;;;;;0.60;0.60;;;;;;;24.05;26.78;99596.50;4861126;29;20040;-73
2021/10/24 11:27:35;;;;;;;1.58;0.40;;;;;;;24.58;25.99;99597.69;4861540;29;20379;-73
2021/10/24 11:30:05;;;;;;;0.30;0.30;;;;;;;21.25;29.41;99596.63;4861014;29;20118;-73
2021/10/24 11:32:36;;;;;;;0.60;0.50;;;;;;;20.67;30.46;99591.50;4860890;29;20033;-73
2021/10/24 11:35:14;;;;;;;0.73;0.40;;;;;;;22.05;29.45;99592.69;4860785;29;20021;-73
2021/10/24 11:37:49;;;;;;;0.45;0.35;;;;;;;21.46;30.33;99586.00;4861018;29;20128;-73
2021/10/24 11:40:22;;;;;;;2.22;0.93;;;;;;;23.40;28.53;99580.88;4860898;29;20034;-73
2021/10/24 11:43:05;;;;;;;2.05;0.80;;;;;;;22.77;27.32;99587.06;4852486;29;20026;-73
2021/10/24 11:45:33;;;;;;;0.43;0.40;;;;;;;21.87;29.34;99577.78;4824127;29;20038;-73
2021/10/24 11:48:21;;;;;;;0.30;0.30;;;;;;;22.53;29.08;99567.25;4824373;29;20457;-73
2021/10/24 11:50:54;;;;;;;0.63;0.50;;;;;;;21.91;29.96;99568.78;4823889;29;20103;-73
2021/10/24 11:53:33;;;;;;;0.93;0.80;;;;;;;24.10;25.96;99560.00;4824061;29;20086;-73
2021/10/24 11:55:59;;;;;;;;;;;;;;;23.78;27.72;99552.19;4824379;29;20050;-73
2021/10/24 12:01:06;;;;;;;3.95;1.20;;;;;;;22.11;29.09;99560.69;4823849;29;20037;-73
2021/10/24 12:03:32;;;;;;;0.43;0.43;;;;;;;22.18;29.08;99555.94;4823862;29;20022;-73
2021/10/24 12:05:58;;;;;;;0.55;0.55;;;;;;;18.56;34.00;99566.09;4824079;29;20030;-73
2021/10/24 12:09:03;;;;;;;0.93;0.45;;;;;;;17.12;36.68;99560.66;4823804;29;20082;-73
2021/10/24 12:11:46;;;;;;;1.25;1.15;;;;;;;17.73;37.20;99560.38;4815131;29;20125;-73
2021/10/24 12:14:12;;;;;;;2.25;1.45;;;;;;;16.59;37.88;99555.28;4852653;29;20108;-72
2021/10/24 12:16:47;;;;;;;0.50;0.50;;;;;;;16.42;38.77;99557.53;4860086;29;20032;-72
2021/10/24 12:19:14;;;;;;;2.30;1.52;;;;;;;16.14;38.75;99553.09;4860092;29;20495;-72
2021/10/24 12:21:40;;;;;;;0.98;0.60;;;;;;;15.75;39.45;99560.25;4860254;29;20113;-73
2021/10/24 12:24:21;;;;;;;0.60;0.50;;;;;;;15.96;40.59;99553.63;4860196;29;20523;-72
2021/10/24 12:26:46;;;;;;;0.73;0.73;;;;;;;16.36;38.95;99549.88;4860091;29;20399;-73
2021/10/24 12:29:17;;;;;;;0.90;0.90;;;;;;;16.45;39.46;99547.00;4859978;29;20021;-73
2021/10/24 12:31:44;;;;;;;0.55;0.55;;;;;;;16.77;40.16;99542.56;4859778;29;20100;-72
2021/10/24 12:34:14;;;;;;;2.45;1.00;;;;;;;16.54;38.63;99541.47;4860138;29;20037;-73
2021/10/24 12:36:39;;;;;;;0.50;0.50;;;;;;;16.69;39.67;99541.00;4859990;29;20025;-72
2021/10/24 12:39:09;;;;;;;0.65;0.65;;;;;;;16.10;40.18;99538.41;4860091;29;20387;-72
2021/10/24 12:41:45;;;;;;;0.93;0.82;;;;;;;16.32;40.50;99540.41;4858495;29;20070;-72
2021/10/24 12:44:23;;;;;;;1.35;1.17;;;;;;;16.00;40.26;99528.22;4852368;29;20435;-72
2021/10/24 12:46:50;;;;;;;0.57;0.57;;;;;;;15.60;41.05;99532.75;4860080;29;20477;-72
2021/10/24 12:49:19;;;;;;;0.60;0.60;;;;;;;15.98;40.28;99527.44;4859975;29;20104;-73
2021/10/24 12:51:47;;;;;;;0.60;0.57;;;;;;;16.14;40.71;99520.84;4859526;29;20053;-72
2021/10/24 12:54:26;;;;;;;1.17;0.85;;;;;;;15.96;41.44;99517.03;4859554;29;20543;-72
2021/10/24 12:56:51;;;;;;;0.32;0.32;;;;;;;16.40;40.98;99509.66;4859779;29;20041;-73
2021/10/24 12:59:17;;;;;;;0.75;0.63;;;;;;;16.61;40.89;99511.59;4859595;29;20035;-73
2021/10/24 13:01:50;;;;;;;0.32;0.32;;;;;;;16.48;40.29;99505.03;4859358;29;20417;-73
2021/10/24 13:04:16;;;;;;;1.08;0.70;;;;;;;16.57;40.68;99499.50;4859594;29;20049;-72
2021/10/24 13:06:42;;;;;;;1.27;0.40;;;;;;;16.06;40.70;99508.00;4859590;29;20041;-72
2021/10/24 13:09:07;;;;;;;0.82;0.40;;;;;;;15.92;40.90;99499.72;4859468;29;20452;-72
2021/10/24 13:11:33;;;;;;;13.90;1.25;;;;;;;15.74;40.83;99492.38;4858343;29;20029;-72
2021/10/24 13:13:59;;;;;;;5.45;0.38;;;;;;;15.90;40.82;99496.25;4851689;29;20064;-73
2021/10/24 13:16:25;;;;;;;1.52;0.65;;;;;;;16.26;42.00;99488.28;4913742;23;20042;-71
2021/10/24 13:18:51;;;;;;;0.68;0.68;;;;;;;16.14;40.90;99481.63;4859513;29;20371;-71
2021/10/24 13:24:16;;;;;;;0.50;0.50;;;;;;;16.28;41.71;99476.00;4848056;29;20113;-72
2021/10/24 13:26:44;;;;;;;0.77;0.77;;;;;;;16.09;41.44;99481.75;4859548;29;20080;-72
2021/10/24 13:29:11;;;;;;;2.25;0.60;;;;;;;16.10;41.90;99472.16;4859407;29;20030;-71
2021/10/24 13:31:37;;;;;;;0.43;0.43;;;;;;;15.94;41.39;99476.97;4862277;29;20036;-72
2021/10/24 13:34:04;;;;;;;0.88;0.88;;;;;;;15.53;42.26;99476.34;4862990;29;20025;-72
2021/10/24 13:36:30;;;;;;;0.85;0.60;;;;;;;15.36;42.64;99478.53;4863260;29;20049;-71
2021/10/24 13:38:56;;;;;;;0.52;0.52;;;;;;;15.45;42.96;99483.53;4862995;29;20519;-72
2021/10/24 13:41:22;;;;;;;0.85;0.60;;;;;;;15.68;41.79;99478.59;4866839;29;20021;-72
2021/10/24 13:43:48;;;;;;;0.50;0.50;;;;;;;15.77;41.92;99468.78;4873794;29;20025;-71
2021/10/24 13:46:14;;;;;;;0.80;0.80;;;;;;;15.79;40.91;99466.97;4881283;29;20471;-71
2021/10/24 13:48:40;;;;;;;4.10;1.17;;;;;;;16.02;42.36;99475.03;4881620;29;20036;-71
2021/10/24 13:51:06;;;;;;;1.95;0.80;;;;;;;15.65;41.91;99464.75;4881311;29;20502;-71
2021/10/24 13:53:31;;;;;;;0.75;0.75;;;;;;;16.01;42.69;99451.53;4881420;29;20029;-71
2021/10/24 13:55:56;;;;;;;1.00;0.88;;;;;;;16.07;41.53;99448.75;4881285;29;20036;-71
2021/10/24 13:58:23;;;;;;;0.50;0.50;;;;;;;15.88;42.86;99451.03;4881391;29;20032;-71
2021/10/24 14:00:49;;;;;;;1.13;1.02;;;;;;;15.41;43.28;99451.41;4881157;29;20039;-72
2021/10/24 14:03:17;;;;;;;0.60;0.60;;;;;;;15.38;43.59;99445.44;4881048;29;20033;-71
2021/10/24 14:05:42;;;;;;;1.17;0.88;;;;;;;15.44;44.13;99440.03;4881075;29;20037;-72
2021/10/24 14:08:08;;;;;;;0.75;0.75;;;;;;;15.41;44.50;99440.97;4881195;29;20025;-71
2021/10/24 14:10:33;;;;;;;1.58;0.85;;;;;;;15.47;43.92;99439.94;4881140;29;20036;-71
2021/10/24 14:12:59;;;;;;;0.95;0.95;;;;;;;15.34;44.45;99449.03;4872113;29;20021;-71
2021/10/24 14:15:25;;;;;;;1.88;0.93;;;;;;;15.25;44.98;99444.03;4880799;29;20041;-71
2021/10/24 14:17:50;;;;;;;0.60;0.60;;;;;;;15.27;45.28;99447.44;4881001;29;20032;-71
2021/10/24 14:20:17;;;;;;;0.52;0.52;;;;;;;15.25;44.99;99444.88;4881189;29;20112;-72
2021/10/24 14:22:43;;;;;;;1.30;1.20;;;;;;;15.16;45.64;99448.59;4880746;29;20033;-71
2021/10/24 14:25:11;;;;;;;2.10;1.20;;;;;;;14.99;45.99;99448.19;4880918;29;20482;-72
2021/10/24 14:27:36;;;;;;;2.53;0.85;;;;;;;15.13;46.12;99450.41;4880869;29;20149;-71
2021/10/24 14:30:03;;;;;;;1.13;0.75;;;;;;;14.91;46.15;99444.91;4880659;29;20175;-72
2021/10/24 14:32:30;;;;;;;2.47;1.13;;;;;;;14.85;46.44;99447.66;4880721;29;20033;-71
2021/10/24 14:34:57;;;;;;;2.38;1.02;;;;;;;14.70;46.88;99450.63;4879442;29;20036;-71
2021/10/24 14:37:23;;;;;;;1.25;1.15;;;;;;;14.56;46.87;99449.22;4880873;29;20040;-72
2021/10/24 14:39:49;;;;;;;0.88;0.82;;;;;;;14.73;47.48;99448.81;4880658;29;20033;-72
2021/10/24 14:42:14;;;;;;;0.80;0.60;;;;;;;14.68;47.57;99447.19;4874949;29;20033;-72
2021/10/24 14:44:39;;;;;;;1.13;1.02;;;;;;;14.85;46.99;99445.06;4875923;29;20037;-72
2021/10/24 14:47:05;;;;;;;0.88;0.88;;;;;;;14.52;47.52;99442.34;4880439;29;20033;-71
2021/10/24 14:49:30;;;;;;;1.88;1.27;;;;;;;14.62;47.52;99438.63;4880640;29;20028;-71
2021/10/24 14:51:56;;;;;;;0.50;0.50;;;;;;;14.45;48.40;99443.34;4880141;29;20033;-71
2021/10/24 14:54:22;;;;;;;0.95;0.80;;;;;;;14.31;48.68;99442.78;4880529;29;20382;-71
2021/10/24 14:56:48;;;;;;;0.82;0.82;;;;;;;14.36;49.18;99443.56;4880622;29;20383;-72
2021/10/24 14:59:13;;;;;;;0.65;0.65;;;;;;;14.27;48.85;99446.38;4880153;29;20044;-71
2021/10/24 15:01:38;;;;;;;0.57;0.57;;;;;;;14.24;48.91;99441.22;4880357;29;20032;-71
2021/10/24 15:04:04;;;;;;;2.50;1.20;;;;;;;14.16;49.47;99449.19;4880233;29;20415;-71
2021/10/24 15:06:29;;;;;;;1.10;1.08;;;;;;;14.23;49.69;99442.13;4880084;29;20025;-72
2021/10/24 15:08:54;;;;;;;1.05;0.93;;;;;;;14.15;50.47;99450.94;4880105;29;20546;-71
2021/10/24 15:11:20;;;;;;;1.00;1.00;;;;;;;13.86;50.34;99450.72;4878748;29;20029;-72
2021/10/24 15:13:45;;;;;;;1.05;0.90;;;;;;;13.82;50.71;99449.06;4872085;29;20076;-71
2021/10/24 15:16:27;;;;;;;0.90;0.70;;;;;;;13.63;51.73;99449.44;4880022;29;20080;-71
2021/10/24 15:21:21;;;;;;;1.20;1.17;;;;;;;13.45;53.09;99449.78;4879912;29;20057;-71
2021/10/24 15:23:47;;;;;;;1.27;1.17;;;;;;;13.40;53.44;99454.22;4879864;29;20033;-72
2021/10/24 15:26:14;;;;;;;1.20;0.98;;;;;;;13.32;54.44;99453.50;4879743;29;20080;-72
2021/10/24 15:28:55;;;;;;;0.88;0.88;;;;;;;13.13;55.21;99442.53;4878586;29;20040;-72
2021/10/24 15:31:23;;;;;;;1.77;1.30;;;;;;;13.03;55.71;99444.44;4879502;29;20120;-71
2021/10/24 15:33:48;;;;;;;0.70;0.70;;;;;;;12.91;56.72;99441.16;4879830;29;20475;-71
2021/10/24 15:36:14;;;;;;;1.50;1.40;;;;;;;12.79;57.50;99448.31;4879681;29;20031;-71
2021/10/24 15:38:40;;;;;;;2.08;1.15;;;;;;;12.69;58.00;99438.06;4879584;29;20056;-71
2021/10/24 15:41:05;;;;;;;1.85;0.95;;;;;;;12.53;58.85;99435.72;4878339;29;20065;-71
2021/10/24 15:43:30;;;;;;;0.60;0.60;;;;;;;12.46;58.65;99436.69;4871604;29;20044;-71
2021/10/24 15:45:56;;;;;;;3.03;1.25;;;;;;;12.32;59.44;99438.63;4879542;29;20025;-71
2021/10/24 15:48:21;;;;;;;1.00;0.88;;;;;;;12.18;60.12;99432.75;4879577;29;20058;-71
2021/10/24 15:50:48;;;;;;;2.13;1.15;;;;;;;12.14;60.60;99431.09;4879297;29;20467;-71
2021/10/24 15:53:15;;;;;;;1.95;1.02;;;;;;;11.92;61.33;99428.78;4878928;29;20025;-71
2021/10/24 15:55:41;;;;;;;1.15;1.05;;;;;;;11.81;61.77;99421.09;4879053;29;20047;-71
2021/10/24 15:58:08;;;;;;;1.50;1.40;;;;;;;11.65;62.59;99436.88;4879507;29;20044;-71
2021/10/24 16:00:34;;;;;;;0.82;0.82;;;;;;;11.54;63.29;99435.25;4879255;29;20414;-71
2021/10/24 16:03:05;;;;;;;1.80;1.38;;;;;;;11.45;63.53;99434.50;4879182;29;20024;-71
2021/10/24 16:05:31;;;;;;;1.65;1.20;;;;;;;11.32;64.16;99438.97;4879054;29;20431;-71
2021/10/24 16:07:57;;;;;;;1.23;1.13;;;;;;;11.23;64.59;99441.66;4879064;29;20033;-71
2021/10/24 16:10:22;;;;;;;4.35;2.08;;;;;;;11.06;65.62;99436.63;4879006;29;20025;-71
2021/10/24 16:12:48;;;;;;;3.33;2.28;;;;;;;10.97;66.10;99440.16;4870554;29;20060;-71
2021/10/24 16:15:13;;;;;;;0.85;0.85;;;;;;;10.84;66.65;99440.31;4878468;29;20021;-71
2021/10/24 16:17:38;;;;;;;1.33;0.80;;;;;;;10.72;67.27;99442.09;4878922;29;20489;-71
2021/10/24 16:20:04;;;;;;;0.90;0.90;;;;;;;10.68;67.58;99447.31;4878953;29;20028;-71
2021/10/24 16:22:30;;;;;;;0.98;0.77;;;;;;;10.62;67.87;99444.78;4878490;29;20390;-71
2021/10/24 16:24:55;;;;;;;1.05;1.05;;;;;;;10.55;68.33;99441.38;4878749;29;20029;-72
2021/10/24 16:27:20;;;;;;;1.58;1.30;;;;;;;10.42;68.86;99448.38;4878766;29;20037;-71
2021/10/24 16:29:46;;;;;;;2.05;1.45;;;;;;;10.27;69.68;99443.28;4878694;29;20600;-71
2021/10/24 16:32:11;;;;;;;0.80;0.80;;;;;;;10.15;70.56;99446.75;4878422;29;20029;-71
2021/10/24 16:34:38;;;;;;;1.15;1.02;;;;;;;10.09;70.62;99446.81;4878593;29;20057;-71
2021/10/24 16:37:03;;;;;;;1.65;1.23;;;;;;;9.99;70.93;99458.06;4878458;29;20021;-71
2021/10/24 16:39:28;;;;;;;2.10;1.80;;;;;;;9.90;71.03;99458.97;4878612;29;20037;-71
2021/10/24 16:41:54;;;;;;;1.20;1.15;;;;;;;9.85;71.11;99465.03;4876795;29;20019;-71
2021/10/24 16:44:19;;;;;;;0.95;0.93;;;;;;;9.73;71.53;99456.47;4870016;29;20031;-71
2021/10/24 16:46:44;;;;;;;1.40;1.23;;;;;;;9.67;72.09;99460.78;4878342;29;20093;-71
2021/10/24 16:49:10;;;;;;;1.27;1.17;;;;;;;9.56;73.02;99457.38;4878540;29;20041;-71
2021/10/24 16:51:35;;;;;;;6.47;1.65;;;;;;;9.42;73.56;99460.84;4878229;29;20100;-71
2021/10/24 16:54:00;;;;;;;2.47;2.28;;;;;;;9.34;73.60;99457.44;4878355;29;20064;-73
2021/10/24 16:56:26;;;;;;;1.95;1.83;;;;;;;9.26;73.81;99459.19;4878419;29;20087;-72
2021/10/24 16:58:52;;;;;;;1.02;0.93;;;;;;;9.20;73.86;99454.88;4878314;29;20501;-71
2021/10/24 17:01:18;;;;;;;2.25;1.25;;;;;;;9.13;74.26;99449.72;4878259;29;20486;-71
2021/10/24 17:03:43;;;;;;;2.45;1.45;;;;;;;9.07;73.98;99454.88;4877019;29;20029;-71
2021/10/24 17:06:09;;;;;;;1.75;1.65;;;;;;;8.99;74.72;99460.94;4877569;29;20371;-71
2021/10/24 17:08:34;;;;;;;1.05;1.00;;;;;;;8.93;74.87;99463.50;4878141;29;20032;-71
2021/10/24 17:11:00;;;;;;;2.97;1.23;;;;;;;8.85;75.37;99462.66;4877139;29;20599;-72
2021/10/24 17:13:25;;;;;;;1.63;1.52;;;;;;;8.85;75.63;99461.78;4870345;29;20029;-72
2021/10/24 17:15:51;;;;;;;1.10;1.10;;;;;;;8.74;75.86;99464.38;4878043;29;20044;-72
2021/10/24 17:18:17;;;;;;;1.85;1.75;;;;;;;8.62;76.61;99475.56;4878149;29;20033;-72
2021/10/24 17:20:43;;;;;;;1.65;1.55;;;;;;;8.54;76.75;99466.09;4878116;29;20177;-72
2021/10/24 17:23:09;;;;;;;1.83;1.27;;;;;;;8.44;77.51;99466.06;4877851;29;20048;-72
2021/10/24 17:25:35;;;;;;;2.05;1.52;;;;;;;8.40;77.45;99466.91;4878130;29;20049;-72
2021/10/24 17:28:00;;;;;;;3.35;1.65;;;;;;;8.34;77.33;99461.72;4878081;29;20029;-72
2021/10/24 17:30:26;;;;;;;1.77;1.60;;;;;;;8.32;77.78;99466.03;4878079;29;20555;-72
2021/10/24 17:32:52;;;;;;;4.75;2.17;;;;;;;8.27;77.82;99465.16;4877964;29;20032;-72
2021/10/24 17:35:18;;;;;;;2.75;2.00;;;;;;;8.26;77.81;99466.00;4877897;29;20123;-72
2021/10/24 17:37:44;;;;;;;4.07;2.35;;;;;;;8.22;78.06;99462.56;4877927;29;20558;-72
2021/10/24 17:40:10;;;;;;;2.35;2.10;;;;;;;8.14;78.32;99465.97;4877903;29;20033;-72
2021/10/24 17:42:35;;;;;;;2.47;1.98;;;;;;;8.07;78.75;99470.22;4870887;29;20052;-72
2021/10/24 17:45:01;;;;;;;2.60;1.73;;;;;;;8.01;78.64;99466.78;4875893;29;20075;-72
2021/10/24 17:47:27;;;;;;;1.98;1.58;;;;;;;7.92;79.15;99471.03;4877984;29;20037;-72
2021/10/24 17:49:52;;;;;;;1.42;1.33;;;;;;;7.93;79.19;99472.78;4877760;29;20112;-72
2021/10/24 17:52:18;;;;;;;2.10;1.75;;;;;;;7.86;79.63;99476.19;4877701;29;20037;-72
2021/10/24 17:54:43;;;;;;;2.15;1.75;;;;;;;7.77;80.13;99476.16;4878048;29;20108;-72
2021/10/24 17:57:09;;;;;;;1.77;1.67;;;;;;;7.66;81.12;99481.25;4877876;29;20431;-72
2021/10/24 17:59:34;;;;;;;1.67;1.67;;;;;;;7.56;81.40;99476.06;4877801;29;20043;-72
2021/10/24 18:01:59;;;;;;;1.88;1.67;;;;;;;7.45;82.12;99476.84;4877702;29;20025;-72
2021/10/24 18:04:25;;;;;;;1.27;1.27;;;;;;;7.36;82.71;99483.69;4877925;29;20029;-72
2021/10/24 18:06:50;;;;;;;3.63;2.65;;;;;;;7.23;83.37;99487.88;4877548;29;20052;-75
2021/10/24 18:09:16;;;;;;;3.20;2.05;;;;;;;7.16;83.90;99475.81;4877788;29;20051;-74
2021/10/24 18:11:41;;;;;;;2.88;1.80;;;;;;;7.13;84.12;99480.94;4877467;29;20459;-74
2021/10/24 18:14:06;;;;;;;2.20;1.92;;;;;;;7.12;83.97;99474.06;4869995;29;20029;-73
2021/10/24 18:16:32;;;;;;;1.30;1.20;;;;;;;7.14;83.94;99472.34;4878755;29;20060;-74
2021/10/24 18:18:57;;;;;;;3.33;2.13;;;;;;;7.14;83.99;99474.94;4881112;29;20514;-73
2021/10/24 18:21:22;;;;;;;3.10;2.15;;;;;;;7.02;84.22;99477.44;4880719;29;20021;-74
2021/10/24 18:23:48;;;;;;;5.53;2.33;;;;;;;6.93;84.64;99466.19;4880958;29;20368;-74
2021/10/24 18:26:20;;;;;;;2.60;2.40;;;;;;;6.93;84.58;99462.75;4880936;29;20029;-75
2021/10/24 18:28:48;;;;;;;4.38;1.92;;;;;;;6.93;84.43;99468.78;4881059;29;20029;-74
2021/10/24 18:31:13;;;;;;;5.68;2.05;;;;;;;6.93;84.43;99463.63;4880735;29;20021;-74
2021/10/24 18:33:39;;;;;;;2.13;1.92;;;;;;;6.85;84.85;99460.09;4880827;29;20073;-73
2021/10/24 18:36:04;;;;;;;1.92;1.83;;;;;;;6.87;84.67;99458.44;4880604;29;20506;-74
2021/10/24 18:38:30;;;;;;;2.80;2.60;;;;;;;6.84;85.05;99460.09;4880742;29;20033;-74
2021/10/24 18:40:55;;;;;;;3.85;2.55;;;;;;;6.74;85.22;99461.75;4879326;29;20036;-74
2021/10/24 18:43:21;;;;;;;3.30;2.45;;;;;;;6.61;86.02;99459.91;4872675;29;20029;-74
2021/10/24 18:45:48;;;;;;;9.05;2.35;;;;;;;6.62;86.05;99456.47;4880524;29;20406;-74
2021/10/24 18:48:13;;;;;;;2.53;2.17;;;;;;;6.57;86.20;99458.16;4880704;29;20033;-74
2021/10/24 18:50:41;;;;;;;1.95;1.85;;;;;;;6.56;86.29;99452.13;4880808;29;20379;-73